Carmunnock, United Kingdom
Current Conditions -  °F | °C
As of 9:20 AM on Friday 28 Nov 2014 (Local Time) from EGPF Reporting Station
Moderate Fog Moderate Fog  
Wind Chill: 43°   Ceiling: 100
Heat Index: 43°   Visibility: 0.31mi
Dew Point: 43°   Wind: 1mph
Humidity: 100%   Direction: 260°W
Pressure: 29.74"   Gusts: NA
Location:  55.79°N, 4.24°W
Report Text: EGPF 280920Z 26001KT 0500 R05/1400 FG OVC001 06/06 Q1007
Loading
Personal Weather Stations






























Interactive Weather Map New forecast layout! Learn more

10-Day Weather Forecast

Advertisements
Track Severe Weather on mobile